createdAt,value
2023-12-07T00:01:22.062Z,-4.90
2023-12-07T00:06:23.929Z,-5.00
2023-12-07T00:11:26.083Z,-5.20
2023-12-07T00:16:27.972Z,-5.20
2023-12-07T00:21:29.787Z,-5.20
2023-12-07T00:26:31.640Z,-5.00
2023-12-07T00:31:33.488Z,-4.90
2023-12-07T00:36:35.321Z,-4.80
2023-12-07T00:41:37.143Z,-4.80
2023-12-07T00:46:39.000Z,-4.70
2023-12-07T00:51:40.791Z,-4.80
2023-12-07T00:56:42.616Z,-4.80
2023-12-07T01:01:44.529Z,-4.70
2023-12-07T01:06:46.478Z,-4.80
2023-12-07T01:11:48.637Z,-4.80
2023-12-07T01:16:50.521Z,-4.70
2023-12-07T01:21:52.350Z,-4.70
2023-12-07T01:26:54.176Z,-4.80
2023-12-07T01:31:55.978Z,-4.80
2023-12-07T01:36:57.805Z,-4.90
2023-12-07T01:41:59.725Z,-4.80
2023-12-07T01:47:02.268Z,-4.80
2023-12-07T01:52:04.531Z,-4.80
2023-12-07T01:57:06.493Z,-4.80
2023-12-07T02:02:08.769Z,-4.90
2023-12-07T02:07:11.189Z,-4.80
2023-12-07T02:12:13.094Z,-4.80
2023-12-07T02:17:39.017Z,-4.80
2023-12-07T02:22:46.005Z,-4.80
2023-12-07T02:27:47.943Z,-4.80
2023-12-07T02:32:49.983Z,-4.80
2023-12-07T02:37:53.310Z,-4.90
2023-12-07T02:42:55.978Z,-4.90
2023-12-07T02:47:59.366Z,-4.80
2023-12-07T02:53:01.302Z,-4.80
2023-12-07T02:58:03.216Z,-4.80
2023-12-07T03:03:05.100Z,-4.80
2023-12-07T03:08:06.939Z,-4.80
2023-12-07T03:13:08.773Z,-4.70
2023-12-07T03:18:11.316Z,-4.80
2023-12-07T03:23:13.252Z,-4.80
2023-12-07T03:28:15.165Z,-4.80
2023-12-07T03:33:17.469Z,-4.70
2023-12-07T03:38:19.861Z,-4.80
2023-12-07T03:43:22.004Z,-4.80
2023-12-07T03:48:23.894Z,-4.90
2023-12-07T03:53:25.784Z,-4.90
2023-12-07T03:58:27.622Z,-4.90
2023-12-07T04:03:29.494Z,-4.90
2023-12-07T04:08:31.364Z,-4.90
2023-12-07T04:13:33.212Z,-4.90
2023-12-07T04:18:35.087Z,-5.00
2023-12-07T04:23:36.980Z,-4.80
2023-12-07T04:28:38.888Z,-4.90
2023-12-07T04:33:40.769Z,-4.90
2023-12-07T04:38:42.588Z,-5.00
2023-12-07T04:43:44.422Z,-5.00
2023-12-07T04:48:46.298Z,-5.00
2023-12-07T04:53:48.526Z,-4.90
2023-12-07T04:58:50.361Z,-4.90
2023-12-07T05:03:52.382Z,-4.90
2023-12-07T05:08:54.189Z,-4.90
2023-12-07T05:13:56.045Z,-4.90
2023-12-07T05:18:57.966Z,-4.90
2023-12-07T05:23:59.851Z,-4.80
2023-12-07T05:29:01.687Z,-4.90
2023-12-07T05:34:04.771Z,-4.90
2023-12-07T05:39:08.470Z,-4.80
2023-12-07T05:44:10.362Z,-4.80
2023-12-07T05:49:12.334Z,-4.80
2023-12-07T05:54:14.205Z,-4.80
2023-12-07T05:59:16.360Z,-4.90
2023-12-07T06:04:18.225Z,-4.80
2023-12-07T06:09:20.027Z,-4.80
2023-12-07T06:14:24.016Z,-4.80
2023-12-07T06:19:26.272Z,-4.90
2023-12-07T06:24:28.087Z,-4.80
2023-12-07T06:29:30.381Z,-4.80
2023-12-07T06:34:32.430Z,-4.90
2023-12-07T06:39:34.319Z,-4.90
2023-12-07T06:44:36.448Z,-4.80
2023-12-07T06:49:47.217Z,-4.90
2023-12-07T06:54:54.121Z,-4.90
2023-12-07T06:59:56.159Z,-4.80
2023-12-07T07:04:58.114Z,-4.70
2023-12-07T07:10:00.494Z,-4.70
2023-12-07T07:15:02.511Z,-4.70
2023-12-07T07:20:04.932Z,-4.70
2023-12-07T07:25:07.026Z,-4.60
2023-12-07T07:30:09.499Z,-4.60
2023-12-07T07:35:13.213Z,-4.60
2023-12-07T07:40:15.594Z,-4.60
2023-12-07T07:45:17.597Z,-4.60
2023-12-07T07:50:19.462Z,-4.50
2023-12-07T07:55:21.360Z,-4.50
2023-12-07T08:00:23.177Z,-4.40
2023-12-07T08:05:25.025Z,-4.40
2023-12-07T08:10:26.913Z,-4.40
2023-12-07T08:15:28.887Z,-4.30
2023-12-07T08:20:30.794Z,-4.20
2023-12-07T08:25:33.326Z,-4.20
2023-12-07T08:30:35.173Z,-4.10
2023-12-07T08:35:36.991Z,-4.00
2023-12-07T08:40:38.923Z,-4.00
2023-12-07T08:45:40.884Z,-3.90
2023-12-07T08:50:42.766Z,-3.80
2023-12-07T08:55:44.686Z,-3.80
2023-12-07T09:00:46.616Z,-3.90
2023-12-07T09:05:48.628Z,-3.70
2023-12-07T09:10:53.642Z,-3.80
2023-12-07T09:15:55.566Z,-3.60
2023-12-07T09:20:57.411Z,-3.60
2023-12-07T09:25:59.219Z,-3.60
2023-12-07T09:31:01.430Z,-3.70
2023-12-07T09:36:09.281Z,-3.50
2023-12-07T09:41:12.069Z,-3.50
2023-12-07T09:46:14.985Z,-3.50
2023-12-07T09:51:17.310Z,-3.50
2023-12-07T09:56:19.114Z,-3.50
2023-12-07T10:01:21.148Z,-3.30
2023-12-07T10:06:23.064Z,-3.40
2023-12-07T10:11:24.943Z,-3.40
2023-12-07T10:16:26.762Z,-3.30
2023-12-07T10:21:35.226Z,-3.20
2023-12-07T10:26:38.364Z,-3.30
2023-12-07T10:31:40.960Z,-3.30
2023-12-07T10:36:44.705Z,-3.20
2023-12-07T10:41:50.141Z,-3.20
2023-12-07T10:46:52.935Z,-3.20
2023-12-07T10:52:08.428Z,-3.10
2023-12-07T10:57:12.544Z,-3.30
2023-12-07T11:02:19.056Z,-3.20
2023-12-07T11:07:23.935Z,-3.10
2023-12-07T11:12:47.058Z,-3.20
2023-12-07T11:17:54.368Z,-3.30
2023-12-07T11:22:57.770Z,-3.20
2023-12-07T11:28:04.294Z,-3.30
2023-12-07T11:33:07.486Z,-3.20
2023-12-07T11:38:12.747Z,-3.30
2023-12-07T11:43:41.880Z,-3.10
2023-12-07T11:48:50.698Z,-3.10
2023-12-07T11:53:53.037Z,-3.10
2023-12-07T11:58:57.138Z,-3.00
2023-12-07T12:04:00.991Z,-3.10
2023-12-07T12:09:03.576Z,-3.10
2023-12-07T12:14:05.590Z,-3.10
2023-12-07T12:19:10.475Z,-3.10
2023-12-07T12:24:14.072Z,-3.10
2023-12-07T12:29:23.772Z,-3.30
2023-12-07T12:34:36.518Z,-3.30
2023-12-07T12:39:38.780Z,-3.30
2023-12-07T12:44:40.568Z,-3.30
2023-12-07T12:49:47.492Z,-3.20
2023-12-07T12:54:50.142Z,-3.10
2023-12-07T12:59:54.122Z,-3.10
2023-12-07T13:04:57.171Z,-3.20
2023-12-07T13:09:59.087Z,-3.20
2023-12-07T13:15:00.892Z,-3.20
2023-12-07T13:20:02.890Z,-3.20
2023-12-07T13:25:05.393Z,-3.20
2023-12-07T13:30:07.982Z,-3.20
2023-12-07T13:35:10.074Z,-3.30
2023-12-07T13:40:13.175Z,-3.30
2023-12-07T13:45:15.145Z,-3.30
2023-12-07T13:50:16.986Z,-3.30
2023-12-07T13:55:18.937Z,-3.30
2023-12-07T14:00:21.180Z,-3.30
2023-12-07T14:05:23.994Z,-3.30
2023-12-07T14:10:25.949Z,-3.40
2023-12-07T14:15:39.332Z,-3.40
2023-12-07T14:20:56.716Z,-3.40
2023-12-07T14:26:09.220Z,-3.40
2023-12-07T14:31:17.444Z,-3.50
2023-12-07T14:36:19.344Z,-3.50
2023-12-07T14:41:21.302Z,-3.50
2023-12-07T14:46:23.160Z,-3.50
2023-12-07T14:51:25.139Z,-3.50
2023-12-07T14:56:27.091Z,-3.50
2023-12-07T15:01:29.724Z,-3.40
2023-12-07T15:06:33.321Z,-3.50
2023-12-07T15:11:35.732Z,-3.50
2023-12-07T15:16:37.800Z,-3.50
2023-12-07T15:21:39.617Z,-3.50
2023-12-07T15:26:44.701Z,-3.50
2023-12-07T15:31:46.668Z,-3.50
2023-12-07T15:36:48.477Z,-3.50
2023-12-07T15:41:50.263Z,-3.60
2023-12-07T15:46:52.044Z,-3.70
2023-12-07T15:51:56.685Z,-3.70
2023-12-07T15:57:00.941Z,-3.80
2023-12-07T16:02:03.139Z,-3.80
2023-12-07T16:07:08.558Z,-3.80
2023-12-07T16:12:12.623Z,-3.80
2023-12-07T16:17:14.642Z,-4.00
2023-12-07T16:22:16.646Z,-4.10
2023-12-07T16:27:19.381Z,-4.10
2023-12-07T16:32:21.329Z,-4.20
2023-12-07T16:37:26.063Z,-4.30
2023-12-07T16:42:28.167Z,-4.30
2023-12-07T16:47:30.445Z,-4.30
2023-12-07T16:52:32.981Z,-4.40
2023-12-07T16:57:36.151Z,-4.50
2023-12-07T17:02:38.161Z,-4.50
2023-12-07T17:07:40.208Z,-4.60
2023-12-07T17:12:42.012Z,-4.60
2023-12-07T17:17:43.982Z,-4.70
2023-12-07T17:22:45.928Z,-4.70
2023-12-07T17:27:47.739Z,-4.70
2023-12-07T17:32:50.809Z,-4.70
2023-12-07T17:37:52.698Z,-4.70
2023-12-07T17:42:54.621Z,-4.70
2023-12-07T17:47:56.642Z,-4.70
2023-12-07T17:52:58.569Z,-4.80
2023-12-07T17:58:00.509Z,-4.80
2023-12-07T18:03:02.407Z,-4.80
2023-12-07T18:08:06.025Z,-4.80
2023-12-07T18:13:10.346Z,-4.80
2023-12-07T18:18:12.255Z,-4.70
2023-12-07T18:23:14.098Z,-4.70
2023-12-07T18:28:16.226Z,-4.80
2023-12-07T18:33:18.312Z,-4.80
2023-12-07T18:38:20.224Z,-4.80
2023-12-07T18:43:23.270Z,-4.80
2023-12-07T18:48:25.219Z,-4.80
2023-12-07T18:53:28.500Z,-4.80
2023-12-07T18:58:30.571Z,-4.70
2023-12-07T19:03:34.169Z,-4.80
2023-12-07T19:08:36.229Z,-4.70
2023-12-07T19:13:38.050Z,-4.70
2023-12-07T19:18:39.962Z,-4.80
2023-12-07T19:23:41.925Z,-4.80
2023-12-07T19:28:44.243Z,-4.80
2023-12-07T19:33:46.160Z,-4.80
2023-12-07T19:38:48.155Z,-4.80
2023-12-07T19:43:51.164Z,-4.80
2023-12-07T19:48:53.341Z,-4.90
2023-12-07T19:53:55.223Z,-4.90
2023-12-07T19:58:57.466Z,-4.90
2023-12-07T20:03:59.420Z,-4.80
2023-12-07T20:09:01.336Z,-4.90
2023-12-07T20:14:04.632Z,-4.90
2023-12-07T20:19:07.734Z,-4.90
2023-12-07T20:24:10.627Z,-4.90
2023-12-07T20:29:12.508Z,-4.90
2023-12-07T20:34:14.396Z,-4.90
2023-12-07T20:39:19.358Z,-4.90
2023-12-07T20:44:21.274Z,-5.00
2023-12-07T20:49:23.235Z,-5.00
2023-12-07T20:54:25.158Z,-5.00
2023-12-07T20:59:27.032Z,-5.00
2023-12-07T21:04:28.912Z,-5.00
2023-12-07T21:09:30.720Z,-5.10
2023-12-07T21:14:32.630Z,-5.10
2023-12-07T21:19:34.672Z,-5.00
2023-12-07T21:24:36.543Z,-5.00
2023-12-07T21:29:39.112Z,-5.10
2023-12-07T21:34:41.910Z,-5.20
2023-12-07T21:39:43.849Z,-5.10
2023-12-07T21:44:45.686Z,-5.10
2023-12-07T21:49:47.612Z,-5.10
2023-12-07T21:54:49.634Z,-5.10
2023-12-07T21:59:51.548Z,-5.00
2023-12-07T22:04:53.419Z,-5.00
2023-12-07T22:09:55.304Z,-5.10
2023-12-07T22:14:57.276Z,-5.10
2023-12-07T22:19:59.170Z,-5.10
2023-12-07T22:25:00.935Z,-5.10
2023-12-07T22:30:02.958Z,-5.10
2023-12-07T22:35:06.191Z,-5.10
2023-12-07T22:40:09.245Z,-5.10
2023-12-07T22:45:11.946Z,-5.10
2023-12-07T22:50:13.821Z,-5.20
2023-12-07T22:55:15.911Z,-5.20
2023-12-07T23:00:21.467Z,-5.20
2023-12-07T23:05:23.410Z,-5.20
2023-12-07T23:10:25.280Z,-5.20
2023-12-07T23:15:27.132Z,-5.20
2023-12-07T23:20:28.972Z,-5.20
2023-12-07T23:25:30.800Z,-5.30
2023-12-07T23:30:32.656Z,-5.30
2023-12-07T23:35:34.516Z,-5.40
2023-12-07T23:40:36.345Z,-5.30
2023-12-07T23:45:38.249Z,-5.30
2023-12-07T23:50:40.057Z,-5.30
2023-12-07T23:55:41.860Z,-5.30
